Time;durP1;ratioP1;P1;durP2;ratioP2;P2;SDS_P1;SDS_P2;PMS_P1;PMS_P2;Temp;Humidity;BMP_temperature;BMP_pressure;BME280_temperature;BME280_humidity;BME280_pressure;Samples;Min_cycle;Max_cycle;Signal;HPM_P1;HPM_P2
2021/04/29 00:02:24;;;;;;;13.70;10.70;;;;;;;11.85;48.24;100050.19;5034825;28;20224;-69
2021/04/29 00:04:49;;;;;;;12.00;10.87;;;;;;;11.72;48.46;100050.25;5021637;28;20265;-69
2021/04/29 00:07:15;;;;;;;11.80;10.53;;;;;;;11.58;49.03;100049.47;5018711;28;20599;-68
2021/04/29 00:09:40;;;;;;;14.33;11.30;;;;;;;11.69;48.93;100045.06;5022212;28;20194;-68
2021/04/29 00:12:06;;;;;;;13.27;10.80;;;;;;;11.99;47.89;100047.50;5022006;28;20186;-69
2021/04/29 00:14:32;;;;;;;12.87;11.50;;;;;;;11.75;48.33;100060.69;5021646;28;20174;-68
2021/04/29 00:16:58;;;;;;;11.30;10.13;;;;;;;12.33;47.62;100055.94;5022130;28;20672;-69
2021/04/29 00:19:23;;;;;;;12.63;11.30;;;;;;;12.65;46.57;100046.94;5021701;28;20360;-68
2021/04/29 00:21:49;;;;;;;12.60;11.40;;;;;;;12.39;47.88;100052.41;5021140;28;20197;-67
2021/04/29 00:24:14;;;;;;;12.40;11.10;;;;;;;13.07;46.37;100046.47;5021508;28;20258;-68
2021/04/29 00:26:40;;;;;;;14.53;11.67;;;;;;;12.92;47.03;100042.28;5021503;28;20258;-68
2021/04/29 00:29:05;;;;;;;12.13;10.43;;;;;;;11.96;48.89;100041.44;5021555;28;20233;-68
2021/04/29 00:31:30;;;;;;;13.87;11.17;;;;;;;12.29;49.28;100052.47;5020937;28;20214;-69
2021/04/29 00:33:59;;;;;;;13.57;11.50;;;;;;;12.48;48.98;100048.84;5021357;28;20179;-69
2021/04/29 00:36:24;;;;;;;12.50;11.20;;;;;;;12.18;49.56;100048.22;5021842;28;20249;-69
2021/04/29 00:38:49;;;;;;;12.60;11.40;;;;;;;12.52;49.38;100043.56;5020989;28;20810;-69
2021/04/29 00:41:15;;;;;;;15.10;11.33;;;;;;;12.41;49.67;100046.28;5021006;28;20175;-68
2021/04/29 00:43:40;;;;;;;12.30;11.00;;;;;;;12.28;49.55;100040.28;5021318;28;20171;-68
2021/04/29 00:46:12;;;;;;;13.20;11.90;;;;;;;11.82;50.99;100043.22;5021050;28;20429;-68
2021/04/29 00:48:37;;;;;;;11.80;10.67;;;;;;;12.04;51.42;100030.94;5021057;28;20533;-67
2021/04/29 00:51:02;;;;;;;13.70;12.33;;;;;;;12.69;49.98;100029.44;5021282;28;20497;-70
2021/04/29 00:53:38;;;;;;;15.97;11.50;;;;;;;12.53;50.54;100027.00;5021072;28;20170;-69
2021/04/29 00:56:04;;;;;;;12.20;11.00;;;;;;;12.11;52.04;100031.75;5020848;28;20182;-68
2021/04/29 00:58:30;;;;;;;14.27;12.00;;;;;;;12.54;50.85;100027.88;5020618;28;20671;-70
2021/04/29 01:00:55;;;;;;;13.83;12.50;;;;;;;11.74;53.81;100032.81;5020770;28;20425;-70
2021/04/29 01:03:29;;;;;;;13.63;12.23;;;;;;;12.00;53.20;100034.44;5021286;28;20234;-69
2021/04/29 01:06:02;;;;;;;13.50;12.10;;;;;;;12.09;52.65;100034.34;5020249;28;20175;-68
2021/04/29 01:08:31;;;;;;;14.23;12.83;;;;;;;12.11;51.88;100029.13;5003682;28;20496;-70
2021/04/29 01:11:10;;;;;;;14.60;12.77;;;;;;;11.92;53.39;100039.69;5019962;28;20469;-69
2021/04/29 01:13:36;;;;;;;14.00;12.70;;;;;;;11.86;53.08;100049.31;5019439;28;20433;-70
2021/04/29 01:16:01;;;;;;;15.40;12.77;;;;;;;11.99;54.03;100035.31;5003727;28;20414;-69
2021/04/29 01:18:27;;;;;;;14.20;12.73;;;;;;;12.02;54.09;100029.19;5003497;28;20179;-69
2021/04/29 01:21:25;;;;;;;14.63;13.13;;;;;;;11.36;56.01;100027.84;5020242;28;20249;-68
2021/04/29 01:24:15;;;;;;;20.20;13.40;;;;;;;11.29;56.45;100020.03;4973216;28;20623;-69
2021/04/29 01:26:50;;;;;;;14.83;13.33;;;;;;;11.14;56.93;100016.66;5001025;28;20415;-68
2021/04/29 01:29:20;;;;;;;15.33;13.87;;;;;;;11.11;57.41;100010.56;5000661;28;20444;-69
2021/04/29 01:31:46;;;;;;;16.23;14.07;;;;;;;10.89;57.75;100006.28;5000611;28;20411;-69
2021/04/29 01:34:15;;;;;;;14.80;13.50;;;;;;;11.32;58.13;100002.63;5000665;28;20557;-69
2021/04/29 01:36:41;;;;;;;18.37;14.93;;;;;;;10.34;60.19;99999.47;5011050;28;20412;-68
2021/04/29 01:39:08;;;;;;;16.77;15.00;;;;;;;10.66;60.67;99991.59;5020637;28;20425;-68
2021/04/29 01:41:37;;;;;;;14.90;13.43;;;;;;;11.05;59.49;99984.50;5020155;28;20425;-69
2021/04/29 01:44:03;;;;;;;16.67;14.93;;;;;;;11.11;59.91;99983.63;5019782;28;20460;-70
2021/04/29 01:46:28;;;;;;;18.00;14.87;;;;;;;10.69;61.02;99982.88;5020321;28;20402;-70
2021/04/29 01:48:54;;;;;;;16.23;14.70;;;;;;;10.45;62.27;99976.88;5019324;28;20241;-69
2021/04/29 01:51:20;;;;;;;15.40;13.87;;;;;;;10.79;60.61;99968.97;5019623;28;20222;-69
2021/04/29 01:53:45;;;;;;;17.07;15.23;;;;;;;10.76;61.12;99968.97;5019610;28;20177;-69
2021/04/29 01:56:11;;;;;;;17.60;15.20;;;;;;;10.79;60.99;99969.81;5019805;28;20505;-69
2021/04/29 01:58:37;;;;;;;15.70;14.30;;;;;;;10.59;62.14;99961.19;5020404;28;20190;-70
2021/04/29 02:01:04;;;;;;;16.43;14.73;;;;;;;10.27;63.87;99964.75;5021444;28;20517;-69
2021/04/29 02:03:30;;;;;;;20.07;14.57;;;;;;;10.17;63.92;99956.03;5019867;28;20409;-68
2021/04/29 02:05:55;;;;;;;15.93;14.53;;;;;;;9.99;65.45;99943.94;5018788;28;20447;-69
2021/04/29 02:08:21;;;;;;;18.47;14.90;;;;;;;10.32;64.39;99946.47;5020008;28;20170;-69
2021/04/29 02:10:48;;;;;;;16.43;14.83;;;;;;;10.16;64.89;99943.03;5019579;28;20211;-70
2021/04/29 02:13:13;;;;;;;17.60;15.70;;;;;;;10.17;64.62;99945.63;5019675;28;20563;-69
2021/04/29 02:15:42;;;;;;;17.53;15.73;;;;;;;9.88;65.50;99943.94;5019403;28;20430;-69
2021/04/29 02:18:12;;;;;;;17.67;15.87;;;;;;;9.77;66.41;99930.91;5019062;28;20446;-68
2021/04/29 02:20:42;;;;;;;18.83;16.93;;;;;;;9.90;66.53;99928.31;5018710;28;20812;-70
2021/04/29 02:23:13;;;;;;;19.87;17.87;;;;;;;10.41;64.85;99929.13;5019341;28;20429;-69
2021/04/29 02:25:40;;;;;;;18.03;16.30;;;;;;;10.67;64.00;99929.91;5019100;28;20421;-69
2021/04/29 02:28:05;;;;;;;18.23;16.43;;;;;;;10.07;65.78;99923.94;5019964;28;20741;-69
2021/04/29 02:30:31;;;;;;;17.70;15.90;;;;;;;10.60;64.41;99918.63;5018066;28;20512;-70
2021/04/29 02:32:57;;;;;;;18.57;16.83;;;;;;;10.54;64.54;99916.94;5018506;28;20305;-69
2021/04/29 02:35:22;;;;;;;18.37;16.50;;;;;;;10.26;65.62;99916.09;5019554;28;20175;-68
2021/04/29 02:37:49;;;;;;;19.17;17.17;;;;;;;10.23;66.05;99914.38;5019170;28;20167;-69
2021/04/29 02:40:15;;;;;;;19.43;17.63;;;;;;;10.02;66.67;99919.63;5018955;28;20181;-68
2021/04/29 02:42:41;;;;;;;19.00;17.30;;;;;;;9.78;67.75;99918.75;5019532;28;20417;-70
2021/04/29 02:45:10;;;;;;;20.60;18.20;;;;;;;9.38;68.72;99918.75;5019089;28;20730;-69
2021/04/29 02:47:41;;;;;;;19.60;17.70;;;;;;;10.15;66.74;99910.91;5018178;28;20205;-70
2021/04/29 02:50:10;;;;;;;17.33;15.73;;;;;;;9.57;67.15;99915.28;5019276;28;20545;-71
2021/04/29 02:52:36;;;;;;;17.13;15.53;;;;;;;9.99;65.53;99907.47;5018840;28;20777;-70
2021/04/29 02:55:01;;;;;;;19.00;15.80;;;;;;;10.10;64.56;99917.88;5018930;28;20501;-70
2021/04/29 02:57:26;;;;;;;18.37;16.57;;;;;;;10.38;63.46;99908.28;5018855;28;20206;-70
2021/04/29 02:59:52;;;;;;;17.23;15.40;;;;;;;10.06;64.13;99917.00;5018892;28;20274;-69
2021/04/29 03:02:17;;;;;;;16.97;15.37;;;;;;;10.25;62.90;99906.53;5018549;28;20257;-69
2021/04/29 03:04:43;;;;;;;17.33;15.63;;;;;;;10.56;62.38;99909.94;5019269;28;20178;-69
2021/04/29 03:07:08;;;;;;;16.87;15.20;;;;;;;10.10;63.59;99910.91;5001641;28;20171;-69
2021/04/29 03:09:34;;;;;;;16.67;15.07;;;;;;;10.12;63.46;99913.53;5018388;28;20473;-69
2021/04/29 03:11:59;;;;;;;16.20;14.60;;;;;;;10.05;63.01;99907.47;5018762;28;20170;-69
2021/04/29 03:14:24;;;;;;;17.50;15.77;;;;;;;10.36;62.19;99902.19;5018142;28;20218;-70
2021/04/29 03:16:50;;;;;;;16.30;14.70;;;;;;;10.35;62.22;99902.22;5017972;28;20186;-69
2021/04/29 03:19:15;;;;;;;16.80;15.10;;;;;;;10.36;62.23;99902.19;5018898;28;20426;-70
2021/04/29 03:21:40;;;;;;;17.07;15.37;;;;;;;10.24;62.86;99899.59;5018246;28;20245;-70
2021/04/29 03:24:07;;;;;;;16.50;14.83;;;;;;;10.15;62.45;99897.00;5018061;28;20357;-69
2021/04/29 03:26:33;;;;;;;16.90;15.30;;;;;;;10.53;61.46;99896.94;5018759;28;20182;-69
2021/04/29 03:28:58;;;;;;;17.30;15.63;;;;;;;10.08;61.99;99897.03;5017826;28;20438;-70
2021/04/29 03:31:23;;;;;;;17.17;15.47;;;;;;;10.36;61.87;99893.53;5018203;28;20564;-69
2021/04/29 03:33:49;;;;;;;16.50;14.80;;;;;;;10.25;62.32;99896.97;5018717;28;20182;-69
2021/04/29 03:36:14;;;;;;;16.27;14.77;;;;;;;10.41;61.96;99899.59;5018181;28;20182;-69
2021/04/29 03:38:42;;;;;;;16.93;15.43;;;;;;;9.82;63.28;99891.00;5017884;28;20187;-70
2021/04/29 03:41:08;;;;;;;17.37;15.77;;;;;;;10.41;62.52;99887.41;5019596;28;20174;-69
2021/04/29 03:43:33;;;;;;;16.37;14.80;;;;;;;10.00;63.59;99890.97;5022166;28;20422;-70
2021/04/29 03:45:58;;;;;;;17.20;15.53;;;;;;;10.45;62.11;99889.16;5022223;28;20175;-69
2021/04/29 03:48:23;;;;;;;17.83;16.00;;;;;;;9.77;64.02;99889.28;5022368;28;20179;-69
2021/04/29 03:50:49;;;;;;;15.93;14.43;;;;;;;10.35;62.96;99889.19;5021757;28;20272;-70
2021/04/29 03:53:14;;;;;;;17.20;15.50;;;;;;;10.37;62.77;99890.06;5021985;28;20504;-70
2021/04/29 03:55:40;;;;;;;18.07;15.90;;;;;;;11.09;60.04;99891.44;5022253;28;20175;-69
2021/04/29 03:58:05;;;;;;;17.00;15.43;;;;;;;10.41;62.56;99894.38;5021803;28;20552;-70
2021/04/29 04:00:30;;;;;;;18.40;16.50;;;;;;;9.89;64.08;99898.81;5024456;28;20429;-69
2021/04/29 04:02:55;;;;;;;16.77;15.10;;;;;;;10.16;62.97;99897.03;5022628;28;20171;-69
2021/04/29 04:05:21;;;;;;;16.53;15.10;;;;;;;10.86;60.95;99894.19;5021630;28;20171;-70
2021/04/29 04:07:46;;;;;;;17.60;15.80;;;;;;;10.40;62.32;99895.25;5021479;28;20225;-70
2021/04/29 04:10:12;;;;;;;18.00;16.30;;;;;;;10.24;63.30;99886.56;5021968;28;20211;-69
2021/04/29 04:12:37;;;;;;;18.07;16.37;;;;;;;10.77;61.40;99890.75;5021691;28;20241;-69
2021/04/29 04:15:04;;;;;;;17.13;15.53;;;;;;;10.50;62.67;99896.06;5021645;28;20171;-69
2021/04/29 04:17:29;;;;;;;17.10;15.60;;;;;;;9.87;63.34;99897.06;5021616;28;20262;-69
2021/04/29 04:19:54;;;;;;;18.33;16.63;;;;;;;9.96;63.35;99886.66;5021568;28;20417;-69
2021/04/29 04:22:20;;;;;;;17.57;15.87;;;;;;;9.95;62.88;99887.50;5021276;28;20233;-69
2021/04/29 04:24:46;;;;;;;17.90;16.20;;;;;;;9.59;64.23;99894.47;5021378;28;20589;-69
2021/04/29 04:27:11;;;;;;;17.50;15.70;;;;;;;9.66;64.22;99885.81;5021059;28;20253;-70
2021/04/29 04:29:36;;;;;;;18.50;16.80;;;;;;;10.92;60.41;99888.97;5021508;28;20206;-70
2021/04/29 04:32:03;;;;;;;18.70;16.83;;;;;;;10.21;62.71;99891.81;5021666;28;20202;-70
2021/04/29 04:34:28;;;;;;;17.07;15.47;;;;;;;10.10;63.04;99884.88;5020752;28;20700;-69
2021/04/29 04:36:53;;;;;;;18.00;16.30;;;;;;;10.63;61.39;99884.72;5021835;28;20511;-70
2021/04/29 04:39:19;;;;;;;19.07;16.73;;;;;;;10.85;60.37;99882.03;5020937;28;20193;-70
2021/04/29 04:41:44;;;;;;;17.97;16.27;;;;;;;11.04;60.59;99877.56;5021256;28;20228;-71
2021/04/29 04:44:09;;;;;;;17.90;16.20;;;;;;;11.00;60.31;99883.66;5007700;28;20202;-70
2021/04/29 04:46:34;;;;;;;19.00;17.20;;;;;;;11.19;59.85;99887.03;5018513;28;20178;-71
2021/04/29 04:49:00;;;;;;;17.80;16.00;;;;;;;10.27;62.84;99889.19;5020541;28;20175;-70
2021/04/29 04:51:25;;;;;;;18.20;16.50;;;;;;;10.46;62.61;99890.03;5020995;28;20218;-69
2021/04/29 04:53:50;;;;;;;18.60;16.70;;;;;;;10.03;63.59;99885.75;5020205;28;20191;-70
2021/04/29 04:56:16;;;;;;;17.97;16.27;;;;;;;10.61;61.79;99889.09;5020706;28;20571;-70
2021/04/29 04:58:41;;;;;;;18.30;16.60;;;;;;;11.04;60.52;99888.88;5020117;28;20229;-69
2021/04/29 05:01:07;;;;;;;18.77;16.80;;;;;;;10.96;60.56;99893.28;5017526;28;20182;-69
2021/04/29 05:03:32;;;;;;;18.70;16.90;;;;;;;10.59;61.50;99891.72;5019019;28;20186;-70
2021/04/29 05:05:58;;;;;;;20.53;18.63;;;;;;;10.61;61.42;99894.31;5021136;28;20167;-70
2021/04/29 05:08:24;;;;;;;20.20;18.30;;;;;;;11.05;60.10;99898.41;5015773;28;20197;-71
2021/04/29 05:10:49;;;;;;;18.13;16.10;;;;;;;10.73;61.46;99894.25;4993849;28;20746;-70
2021/04/29 05:13:14;;;;;;;18.57;16.80;;;;;;;9.98;63.35;99897.06;5001115;28;20214;-70
2021/04/29 05:15:39;;;;;;;19.87;18.00;;;;;;;10.73;61.77;99890.75;5000810;28;20186;-70
2021/04/29 05:18:05;;;;;;;19.80;17.80;;;;;;;11.05;60.98;99893.19;5005857;28;20560;-69
2021/04/29 05:20:31;;;;;;;19.47;17.57;;;;;;;10.49;62.54;99889.16;5035822;28;20201;-70
2021/04/29 05:22:56;;;;;;;19.13;17.23;;;;;;;10.54;61.59;99892.59;5039898;28;20185;-70
2021/04/29 05:25:22;;;;;;;18.93;17.17;;;;;;;10.98;61.27;99886.28;5030880;28;20227;-69
2021/04/29 05:27:51;;;;;;;18.80;16.43;;;;;;;11.07;61.15;99888.84;5003660;28;20186;-70
2021/04/29 05:30:17;;;;;;;20.70;18.80;;;;;;;10.79;61.97;99890.75;5019156;28;20512;-70
2021/04/29 05:32:43;;;;;;;20.47;18.47;;;;;;;11.76;58.15;99884.84;5019925;28;20428;-70
2021/04/29 05:35:08;;;;;;;20.30;18.40;;;;;;;11.20;59.80;99884.41;5020080;28;20434;-71
2021/04/29 05:37:34;;;;;;;21.83;18.80;;;;;;;10.90;61.29;99888.09;5020071;28;20186;-71
2021/04/29 05:39:59;;;;;;;19.47;17.70;;;;;;;11.37;60.74;99886.91;5020322;28;20443;-71
2021/04/29 05:42:24;;;;;;;19.53;17.43;;;;;;;11.32;59.96;99896.50;5020537;28;20175;-70
2021/04/29 05:44:50;;;;;;;19.20;17.40;;;;;;;11.28;60.26;99892.19;5014208;28;20210;-69
2021/04/29 05:47:15;;;;;;;18.87;16.70;;;;;;;11.06;61.16;99900.16;5000411;28;20252;-70
2021/04/29 05:49:42;;;;;;;19.40;17.60;;;;;;;10.77;62.07;99893.38;5000866;28;20191;-70
2021/04/29 05:52:07;;;;;;;19.27;17.57;;;;;;;11.93;58.54;99886.44;4999850;28;20203;-70
2021/04/29 05:54:34;;;;;;;18.93;17.20;;;;;;;11.44;60.27;99892.94;5004580;28;20484;-69
2021/04/29 05:56:59;;;;;;;19.77;17.97;;;;;;;11.74;58.93;99890.97;5020332;28;20167;-69
2021/04/29 05:59:24;;;;;;;20.50;18.30;;;;;;;11.39;59.92;99899.94;5016679;28;20453;-70
2021/04/29 06:01:50;;;;;;;19.47;17.67;;;;;;;12.18;57.78;99896.66;5018861;28;20427;-69
2021/04/29 06:04:15;;;;;;;19.60;17.70;;;;;;;11.20;61.38;99900.06;5019134;28;20182;-69
2021/04/29 06:06:40;;;;;;;19.83;17.90;;;;;;;11.62;60.31;99898.03;5006713;28;20266;-71
2021/04/29 06:09:06;;;;;;;21.93;18.03;;;;;;;10.91;63.12;99910.69;5011716;28;20194;-70
2021/04/29 06:11:31;;;;;;;20.97;18.90;;;;;;;11.36;61.92;99897.38;5008801;28;20564;-70
2021/04/29 06:13:57;;;;;;;21.30;19.20;;;;;;;11.51;61.42;99904.22;5014724;28;20186;-69
2021/04/29 06:16:22;;;;;;;21.80;19.70;;;;;;;10.48;63.81;99901.31;5016264;28;20253;-70
2021/04/29 06:18:47;;;;;;;21.90;19.67;;;;;;;11.34;62.38;99913.03;5012759;28;20183;-65
2021/04/29 06:21:13;;;;;;;21.90;19.67;;;;;;;11.74;60.63;99914.47;5006955;28;20211;-66
2021/04/29 06:23:39;;;;;;;21.50;19.53;;;;;;;11.37;61.65;99909.53;5016013;28;20559;-67
2021/04/29 06:26:16;;;;;;;20.97;19.00;;;;;;;11.41;61.99;99911.25;5127073;27;20541;-67
2021/04/29 06:28:41;;;;;;;23.20;19.40;;;;;;;11.65;61.94;99917.16;5135676;27;20436;-67
2021/04/29 06:31:08;;;;;;;21.10;19.03;;;;;;;11.72;61.39;99913.63;5134979;27;20236;-67
2021/04/29 06:33:33;;;;;;;23.80;21.43;;;;;;;10.71;64.96;99918.59;5136184;27;20190;-66
2021/04/29 06:35:58;;;;;;;22.10;19.90;;;;;;;10.83;64.67;99921.13;5124826;27;20436;-66
2021/04/29 06:38:25;;;;;;;23.40;20.90;;;;;;;11.18;64.08;99911.41;5132573;27;20604;-66
2021/04/29 06:40:50;;;;;;;23.87;21.57;;;;;;;11.51;62.60;99915.50;5120878;28;20281;-67
2021/04/29 06:43:16;;;;;;;23.40;21.10;;;;;;;11.27;63.11;99916.53;5115644;28;20452;-66
2021/04/29 06:45:41;;;;;;;22.47;20.07;;;;;;;11.37;62.95;99918.22;5136090;27;20202;-66
2021/04/29 06:48:11;;;;;;;22.27;20.17;;;;;;;11.54;62.40;99909.41;5122747;28;20191;-67
2021/04/29 06:50:37;;;;;;;23.23;21.00;;;;;;;11.16;64.38;99915.75;5119866;28;20179;-65
2021/04/29 06:53:03;;;;;;;23.20;20.87;;;;;;;10.72;65.84;99908.16;5131030;27;20736;-68
2021/04/29 06:55:28;;;;;;;24.07;21.80;;;;;;;11.05;64.37;99914.06;5134758;27;20440;-69
2021/04/29 06:57:53;;;;;;;23.67;21.13;;;;;;;10.21;67.39;99912.63;5130544;27;20484;-68
2021/04/29 07:00:19;;;;;;;23.97;21.77;;;;;;;10.66;66.47;99917.75;5122978;27;20179;-69
2021/04/29 07:02:45;;;;;;;22.23;19.93;;;;;;;9.93;67.88;99910.94;5115210;28;20520;-66
2021/04/29 07:05:10;;;;;;;23.93;21.37;;;;;;;10.18;67.38;99912.66;5128037;27;20891;-68
2021/04/29 07:07:36;;;;;;;23.97;21.70;;;;;;;10.60;65.74;99914.28;5127369;27;20202;-69
2021/04/29 07:10:02;;;;;;;26.20;23.13;;;;;;;10.37;66.94;99911.75;5121656;27;20176;-69
2021/04/29 07:12:27;;;;;;;26.30;22.33;;;;;;;10.93;65.03;99909.81;5131149;27;20221;-69
2021/04/29 07:14:53;;;;;;;24.47;22.27;;;;;;;10.99;64.28;99910.63;5119132;27;20441;-71
2021/04/29 07:17:18;;;;;;;24.83;22.13;;;;;;;11.02;63.40;99906.25;5123496;27;20254;-70
2021/04/29 07:19:44;;;;;;;23.17;21.00;;;;;;;11.10;64.01;99909.69;5139660;27;20187;-71
2021/04/29 07:22:09;;;;;;;22.93;20.67;;;;;;;9.89;68.36;99913.53;5134198;27;20439;-69
2021/04/29 07:24:34;;;;;;;24.50;22.10;;;;;;;10.55;64.83;99904.75;5131241;27;20222;-68
2021/04/29 07:27:04;;;;;;;24.53;21.97;;;;;;;10.32;66.87;99897.84;5116674;27;20183;-67
2021/04/29 07:29:29;;;;;;;23.53;21.17;;;;;;;10.50;65.23;99902.19;5128400;27;20187;-68
2021/04/29 07:31:54;;;;;;;23.20;20.80;;;;;;;9.58;69.15;99909.22;5114147;28;20513;-69
2021/04/29 07:34:20;;;;;;;23.07;20.60;;;;;;;9.75;68.70;99900.53;5114424;28;20591;-68
2021/04/29 07:36:45;;;;;;;25.43;22.83;;;;;;;10.40;66.78;99898.72;5105031;28;20168;-67
2021/04/29 07:39:11;;;;;;;23.73;21.20;;;;;;;10.76;65.72;99895.97;5109513;28;20273;-68
2021/04/29 07:41:36;;;;;;;25.00;22.60;;;;;;;10.30;66.94;99889.19;5100559;28;20250;-68
2021/04/29 07:44:03;;;;;;;25.67;23.17;;;;;;;11.06;63.08;99884.50;5118782;28;20175;-70
2021/04/29 07:46:28;;;;;;;26.07;23.40;;;;;;;10.58;66.57;99884.75;5120274;28;20250;-70
2021/04/29 07:48:54;;;;;;;24.37;21.93;;;;;;;10.69;65.02;99886.44;5107172;28;20544;-69
2021/04/29 07:51:19;;;;;;;24.07;21.43;;;;;;;10.17;67.10;99892.69;5102550;28;20596;-71
2021/04/29 07:53:44;;;;;;;25.17;22.47;;;;;;;9.78;68.19;99885.81;5120715;28;20179;-70
2021/04/29 07:56:10;;;;;;;22.20;19.97;;;;;;;9.55;69.26;99887.53;5100277;28;20188;-71
2021/04/29 07:58:35;;;;;;;27.83;23.63;;;;;;;9.70;67.99;99890.16;5103971;28;20180;-70
2021/04/29 08:01:01;;;;;;;25.70;23.10;;;;;;;10.13;67.18;99885.75;5100412;28;20169;-69
2021/04/29 08:03:26;;;;;;;21.10;18.83;;;;;;;9.77;66.65;99893.63;5100280;28;20191;-67
2021/04/29 08:05:51;;;;;;;24.57;22.33;;;;;;;10.36;66.40;99878.75;5108158;28;20494;-73
2021/04/29 08:08:18;;;;;;;25.00;22.40;;;;;;;10.40;66.05;99874.41;5100357;28;20187;-70
2021/04/29 08:10:43;;;;;;;24.60;22.17;;;;;;;10.46;65.12;99874.41;5100076;28;20420;-69
2021/04/29 08:13:10;;;;;;;25.20;22.50;;;;;;;10.95;63.94;99875.88;5100523;28;20407;-69
2021/04/29 08:15:36;;;;;;;24.70;22.30;;;;;;;11.68;61.40;99877.97;5118575;28;20183;-69
2021/04/29 08:18:01;;;;;;;24.60;22.33;;;;;;;10.68;64.66;99880.38;5103362;28;20519;-70
2021/04/29 08:20:27;;;;;;;25.47;22.93;;;;;;;10.81;65.30;99886.41;5105390;27;20241;-70
2021/04/29 08:22:52;;;;;;;26.37;23.70;;;;;;;10.68;66.16;99887.34;5110054;28;20537;-69
2021/04/29 08:25:18;;;;;;;25.13;22.40;;;;;;;12.30;60.10;99879.13;5099731;28;20239;-68
2021/04/29 08:27:43;;;;;;;24.03;21.67;;;;;;;10.96;63.38;99890.66;5102358;28;20227;-67
2021/04/29 08:30:09;;;;;;;24.93;22.33;;;;;;;10.38;66.68;99892.66;5107329;28;20191;-68
2021/04/29 08:32:35;;;;;;;25.40;22.67;;;;;;;10.96;64.86;99895.88;5099737;28;20187;-69
2021/04/29 08:35:00;;;;;;;25.13;22.23;;;;;;;9.96;68.92;99889.25;5103680;28;20182;-69
2021/04/29 08:37:26;;;;;;;25.83;23.10;;;;;;;11.14;65.59;99883.63;5099059;28;20418;-68
2021/04/29 08:39:51;;;;;;;25.87;23.30;;;;;;;10.36;67.98;99883.97;5099544;28;20237;-68
2021/04/29 08:42:16;;;;;;;26.50;23.90;;;;;;;10.91;67.06;99887.22;5102827;28;20188;-68
2021/04/29 08:44:43;;;;;;;26.57;23.77;;;;;;;10.36;68.12;99883.97;5105265;28;20634;-68
2021/04/29 08:47:08;;;;;;;26.00;23.33;;;;;;;10.45;68.04;99888.28;5101778;28;20192;-70
2021/04/29 08:49:36;;;;;;;25.37;23.00;;;;;;;10.68;67.96;99889.94;5098407;28;20452;-69
2021/04/29 08:52:02;;;;;;;26.80;24.10;;;;;;;10.44;69.12;99884.81;5113795;28;20195;-69
2021/04/29 08:54:28;;;;;;;31.10;25.23;;;;;;;10.64;69.51;99886.47;5107598;28;20438;-73
2021/04/29 08:56:54;;;;;;;29.03;25.60;;;;;;;11.89;64.35;99882.13;5104527;28;20526;-69
2021/04/29 08:59:19;;;;;;;26.27;23.70;;;;;;;11.84;64.25;99891.75;5118733;28;20436;-71
2021/04/29 09:01:46;;;;;;;27.10;24.40;;;;;;;11.25;66.61;99887.00;5103237;28;20475;-69
2021/04/29 09:04:16;;;;;;;25.70;23.30;;;;;;;11.90;64.65;99884.72;5103695;28;20204;-71
2021/04/29 09:06:45;;;;;;;25.63;23.33;;;;;;;12.57;62.68;99879.66;5101822;28;20524;-70
2021/04/29 09:09:12;;;;;;;26.93;24.10;;;;;;;13.21;60.52;99876.19;5112197;28;20429;-71
2021/04/29 09:11:54;;;;;;;25.57;22.93;;;;;;;12.15;63.91;99886.25;5110997;28;20816;-70
2021/04/29 09:14:33;;;;;;;26.37;23.60;;;;;;;12.57;62.56;99878.78;5098482;28;20428;-69
2021/04/29 09:16:59;;;;;;;25.37;22.43;;;;;;;11.25;65.96;99882.63;5103668;28;20477;-70
2021/04/29 09:19:26;;;;;;;24.90;22.40;;;;;;;12.38;63.75;99884.25;5117201;27;20564;-70
2021/04/29 09:21:52;;;;;;;25.83;23.27;;;;;;;12.19;64.26;99887.94;5113328;28;20229;-68
2021/04/29 09:24:17;;;;;;;23.70;21.40;;;;;;;11.98;64.66;99887.28;5102776;28;20448;-70
2021/04/29 09:26:43;;;;;;;25.43;22.90;;;;;;;12.48;63.10;99881.53;5103729;28;20313;-70
2021/04/29 09:29:11;;;;;;;26.53;23.90;;;;;;;11.85;64.71;99890.88;5100007;28;20241;-69
2021/04/29 09:31:39;;;;;;;26.23;23.70;;;;;;;12.04;65.86;99887.25;5105257;28;20187;-69
2021/04/29 09:34:04;;;;;;;27.13;24.43;;;;;;;12.53;63.73;99883.22;5118487;28;20401;-70
2021/04/29 09:36:33;;;;;;;25.53;23.10;;;;;;;12.02;64.06;99882.91;5116554;28;20437;-68
2021/04/29 09:38:59;;;;;;;26.30;23.80;;;;;;;12.76;62.17;99877.69;5099174;28;20195;-68
2021/04/29 09:41:27;;;;;;;26.10;23.70;;;;;;;12.67;62.56;99879.56;5103585;28;20877;-71
2021/04/29 09:43:54;;;;;;;25.83;23.43;;;;;;;11.59;66.38;99890.19;5098161;28;20442;-69
2021/04/29 09:46:19;;;;;;;24.93;22.63;;;;;;;10.64;69.39;99888.22;5097729;28;20464;-69
2021/04/29 09:48:45;;;;;;;26.47;23.83;;;;;;;10.93;69.85;99894.16;5104280;28;20453;-69
2021/04/29 09:51:13;;;;;;;26.37;23.80;;;;;;;12.23;65.32;99879.19;5099972;28;20180;-70
2021/04/29 09:53:47;;;;;;;25.97;23.30;;;;;;;12.96;61.88;99876.53;5098746;28;20187;-71
2021/04/29 09:56:13;;;;;;;26.37;23.90;;;;;;;12.09;66.06;99887.19;5106226;28;20465;-70
2021/04/29 09:58:48;;;;;;;25.83;23.33;;;;;;;12.61;63.67;99883.09;5097803;28;20414;-68
2021/04/29 10:01:14;;;;;;;26.80;24.20;;;;;;;11.63;67.55;99894.53;5106766;28;20465;-70
2021/04/29 10:03:41;;;;;;;27.37;24.57;;;;;;;11.15;67.90;99891.41;5097737;28;20433;-70
2021/04/29 10:06:10;;;;;;;27.07;24.50;;;;;;;10.70;70.15;99894.28;5096563;28;20504;-68
2021/04/29 10:08:35;;;;;;;26.50;23.80;;;;;;;11.51;68.17;99893.78;5099986;28;20430;-70
2021/04/29 10:11:03;;;;;;;26.67;23.97;;;;;;;11.12;68.99;99891.41;5098064;28;20461;-69
2021/04/29 10:13:33;;;;;;;28.27;25.53;;;;;;;11.45;68.44;99900.75;5097528;28;20191;-70
2021/04/29 10:15:59;;;;;;;27.10;24.43;;;;;;;11.90;66.12;99894.31;5106744;28;20494;-70
2021/04/29 10:18:28;;;;;;;27.57;24.93;;;;;;;11.37;68.18;99901.72;5099534;28;20501;-70
2021/04/29 10:20:56;;;;;;;29.17;26.47;;;;;;;12.03;66.08;99895.97;5117786;27;20436;-69
2021/04/29 10:23:22;;;;;;;33.00;26.03;;;;;;;11.48;68.56;99888.59;5101391;28;20457;-69
2021/04/29 10:25:50;;;;;;;28.77;25.77;;;;;;;11.83;67.08;99895.25;5100052;28;20746;-70
2021/04/29 10:28:31;;;;;;;26.70;24.10;;;;;;;11.83;66.91;99892.66;5114975;28;20472;-70
2021/04/29 10:30:57;;;;;;;27.43;24.80;;;;;;;11.58;67.39;99896.34;5096960;28;20406;-70
2021/04/29 10:33:23;;;;;;;28.00;25.30;;;;;;;10.69;71.32;99897.75;5097493;28;21011;-70
2021/04/29 10:35:58;;;;;;;29.37;26.57;;;;;;;11.42;69.83;99900.78;5104349;28;20592;-71
2021/04/29 10:38:33;;;;;;;27.77;25.17;;;;;;;12.06;66.57;99898.53;5097350;28;20184;-72
2021/04/29 10:41:01;;;;;;;31.00;25.90;;;;;;;11.07;68.77;99888.84;5109878;28;20467;-72
2021/04/29 10:43:33;;;;;;;27.60;24.90;;;;;;;10.66;70.50;99895.13;5099016;28;20498;-71
2021/04/29 10:46:03;;;;;;;27.00;24.27;;;;;;;10.43;72.50;99893.50;5097420;28;20478;-70
2021/04/29 10:48:28;;;;;;;28.23;25.43;;;;;;;10.89;70.44;99892.44;5097285;28;20427;-71
2021/04/29 10:51:05;;;;;;;31.47;28.47;;;;;;;12.12;66.90;99892.38;5098420;28;21555;-73
2021/04/29 10:53:32;;;;;;;30.03;27.00;;;;;;;12.46;65.32;99879.81;5105788;28;20247;-71
2021/04/29 10:56:16;;;;;;;30.63;27.70;;;;;;;12.50;65.08;99887.59;5106522;28;20744;-70
2021/04/29 10:58:42;;;;;;;31.50;28.37;;;;;;;12.37;66.04;99885.13;5097102;28;20430;-70
2021/04/29 11:01:14;;;;;;;32.20;28.90;;;;;;;11.55;68.39;99890.25;5095524;28;20417;-70
2021/04/29 11:03:42;;;;;;;31.90;28.10;;;;;;;11.84;67.13;99883.91;5097732;28;20677;-71
2021/04/29 11:06:12;;;;;;;30.83;27.93;;;;;;;11.48;67.74;99892.03;5098556;28;20544;-70
2021/04/29 11:08:42;;;;;;;29.77;26.77;;;;;;;11.60;68.56;99883.25;5109531;28;20727;-72
2021/04/29 11:11:20;;;;;;;30.50;27.50;;;;;;;12.47;65.42;99880.66;5103330;28;20453;-70
2021/04/29 11:14:01;;;;;;;31.30;28.00;;;;;;;11.40;68.59;99883.41;5113499;28;20679;-69
2021/04/29 11:16:27;;;;;;;28.53;25.83;;;;;;;11.48;68.76;99883.38;5104196;28;20387;-70